Ravinia, South Dakota
Current Conditions -  °F | °C
As of 6:53 AM on Friday 24 Oct 2014 (Local Time) from KMHE Reporting Station
Clear Clear  
Wind Chill: 42°   Ceiling: Unl
Heat Index: 46°   Visibility: 10mi
Dew Point: 40°   Wind: 7mph
Humidity: 79%   Direction: 280°W
Pressure: 29.86"   Gusts: NA
Location:  43.14°N, 98.43°W
Report Text: KMHE 241153Z AUTO 28006KT 10SM CLR 08/04 A2986 RMK AO2 SLP114 T00780044 10111 20078 53007
Loading
Personal Weather Stations






























Interactive Weather Map
Tropical Storm Tracking
New forecast layout! Learn more

10-Day Weather Forecast

Advertisements
Track Severe Weather on mobile